Latest Weather Observations for Maatsuyker Island

IDT60801

Issued at 4:02 pm EST Saturday 27 May 2017 (issued every 30 minutes, with the page automatically refreshed every 10 minutes)

About weather observations | Map of weather stations | Latest weather observations for TAS | Other Formats
Station Details ID: 094041 Name: MAATSUYKER ISLAND LIGHTHOUSE Lat: -43.66 Lon: 146.27 Height: 146.5 m
Data from the previous 72 hours. | See also: Recent months at Maatsuyker Island
Date/Time
EST
Temp
°C
App
Temp
°C
Dew
Point
°C
Rel
Hum
%
Delta-T
°C
Wind Press
QNH
hPa
Press
MSL
hPa
Rain since
9am
mm
Dir  Spd
km/h
Gust
km/h
Spd
kts
Gust
kts
27/04:00pm 14.4 6.9 9.6 73 2.5 NNW 39 54 21 29 1002.8 - 0.0
27/03:45pm 15.3 8.5 7.8 61 3.8 NNW 33 52 18 28 1003.0 - 0.0
27/03:30pm 15.3 8.9 8.5 64 3.5 NNW 32 44 17 24 1003.3 - 0.0
27/03:00pm 16.3 10.0 7.6 56 4.4 NNW 30 43 16 23 1003.2 1003.3 0.0
27/02:40pm 16.3 9.7 7.6 56 4.4 NNW 32 50 17 27 1003.3 - 0.0
27/02:30pm 16.3 8.7 7.6 56 4.4 NNW 37 50 20 27 1003.5 - 0.0
27/02:00pm 15.6 8.5 8.1 61 3.8 NNW 35 46 19 25 1004.0 - 0.0
27/01:39pm 15.9 8.8 8.1 60 4.0 NNW 35 54 19 29 1004.3 - 0.0
27/01:30pm 15.5 7.5 7.3 58 4.1 NNW 39 50 21 27 1004.5 - 0.0
27/01:00pm 14.9 7.8 8.0 63 3.5 NNW 35 50 19 27 1005.1 - 0.0
27/12:38pm 14.6 7.0 7.6 63 3.5 NNW 37 56 20 30 1005.4 - 0.0
27/12:30pm 14.7 6.3 7.5 62 3.6 NNW 41 56 22 30 1005.6 - 0.0
27/12:04pm 14.6 6.2 7.4 62 3.6 NNW 41 59 22 32 1005.7 - 0.0
27/12:00pm 14.6 6.2 7.4 62 3.6 NNW 41 52 22 28 1006.0 1006.2 0.0
27/11:30am 14.3 5.6 7.5 63 3.4 NNW 43 57 23 31 1006.2 - 0.0
27/11:05am 14.1 5.0 7.0 62 3.5 NNW 44 65 24 35 1006.6 - 0.0
27/11:00am 14.0 5.2 7.1 63 3.4 NNW 43 57 23 31 1006.9 - 0.0
27/10:30am 13.7 4.8 7.0 64 3.3 NNW 43 57 23 31 1007.3 - 0.0
27/10:00am 13.4 4.2 5.6 59 3.7 NNW 43 61 23 33 1007.3 - 0.0
27/09:59am 13.4 4.2 5.6 59 3.7 NNW 43 61 23 33 1007.4 - 0.0
27/09:30am 12.7 3.3 5.2 60 3.5 NNW 44 59 24 32 1007.6 - 0.0
27/09:00am 12.5 3.6 5.0 60 3.5 NNW 41 57 22 31 1007.9 1008.1 0.4
27/08:30am 12.1 3.9 4.5 59 3.5 N 37 50 20 27 1008.4 - 0.4
27/08:03am 11.7 4.6 3.7 58 3.6 N 30 48 16 26 1008.9 - 0.4
27/08:00am 11.7 4.3 4.2 60 3.4 N 32 43 17 23 1009.0 - 0.4
27/07:41am 11.6 4.2 4.1 60 3.4 NNW 32 50 17 27 1008.8 - 0.4
27/07:30am 11.6 4.8 4.9 63 3.1 NNW 30 44 16 24 1009.1 - 0.4
27/07:00am 11.6 3.6 3.8 59 3.5 N 35 50 19 27 1009.1 - 0.4
27/06:30am 11.4 3.4 3.6 58 3.5 N 35 56 19 30 1008.9 - 0.4
27/06:25am 11.5 2.8 4.0 60 3.4 NNW 39 57 21 31 1009.0 - 0.4
27/06:00am 11.2 1.7 4.1 61 3.2 N 43 59 23 32 1009.3 1009.5 0.4
27/05:30am 10.6 1.1 3.9 63 3.0 N 43 61 23 33 1010.1 - 0.4
27/05:06am 10.6 0.5 3.6 62 3.1 N 46 65 25 35 1010.3 - 0.4
27/05:00am 10.7 -0.1 4.0 63 3.0 NNW 50 65 27 35 1010.3 - 0.4
27/04:44am 10.8 0.7 3.6 61 3.2 NNW 46 65 25 35 1010.3 - 0.4
27/04:30am 10.9 0.8 4.0 62 3.1 NNW 46 59 25 32 1010.8 - 0.4
27/04:04am 10.8 1.6 3.6 61 3.2 NNW 41 63 22 34 1011.5 - 0.4
27/04:00am 10.8 2.4 3.9 62 3.1 NNW 37 54 20 29 1011.4 - 0.4
27/03:31am 10.8 1.6 3.6 61 3.2 NNW 41 59 22 32 1011.6 - 0.4
27/03:30am 10.8 1.6 3.6 61 3.2 NNW 41 57 22 31 1011.8 - 0.4
27/03:13am 10.9 2.5 3.5 60 3.3 N 37 56 20 30 1012.0 - 0.4
27/03:00am 10.9 1.6 3.2 59 3.4 NNW 41 54 22 29 1012.2 1012.4 0.4
27/02:30am 11.1 2.4 4.2 62 3.1 NNW 39 54 21 29 1012.5 - 0.4
27/02:00am 11.2 2.9 4.1 61 3.2 NNW 37 52 20 28 1012.4 - 0.4
27/01:30am 11.1 3.8 4.5 64 3.0 NNW 32 44 17 24 1012.6 - 0.4
27/01:17am 11.1 3.6 3.4 59 3.4 N 32 50 17 27 1012.5 - 0.4
27/01:00am 11.1 4.6 4.5 64 3.0 N 28 39 15 21 1012.9 - 0.4
27/12:30am 10.8 3.6 4.9 67 2.7 N 32 43 17 23 1013.4 - 0.4
27/12:01am 10.9 3.7 4.8 66 2.8 NNW 32 50 17 27 1013.7 - 0.4
27/12:00am 10.9 3.7 4.8 66 2.8 NNW 32 43 17 23 1013.8 1014.0 0.4
 
Date/Time
EST
Temp
°C
App
Temp
°C
Dew
Point
°C
Rel
Hum
%
Delta-T
°C
Wind Press
QNH
hPa
Press
MSL
hPa
Rain since
9am
mm
Dir  Spd
km/h
Gust
km/h
Spd
kts
Gust
kts
26/11:30pm 10.6 4.1 4.6 66 2.7 N 28 39 15 21 1014.4 - 0.4
26/11:00pm 10.6 3.8 4.9 68 2.6 NNW 30 44 16 24 1014.7 - 0.4
26/10:30pm 10.5 3.2 4.5 66 2.7 NNW 32 43 17 23 1014.8 - 0.4
26/10:10pm 10.3 3.2 5.3 71 2.3 NNW 32 50 17 27 1015.2 - 0.4
26/10:00pm 10.7 2.5 5.0 68 2.6 NNW 37 48 20 26 1015.3 - 0.4
26/09:30pm 10.4 4.5 5.6 72 2.2 NNW 26 35 14 19 1015.5 - 0.4
26/09:00pm 10.2 4.2 5.4 72 2.2 NNW 26 35 14 19 1015.4 1015.7 0.4
26/08:30pm 10.3 3.2 5.5 72 2.2 NNW 32 44 17 24 1015.4 - 0.4
26/08:00pm 10.1 3.1 5.8 74 2.0 NNW 32 39 17 21 1015.7 - 0.4
26/07:30pm 10.5 4.2 5.5 71 2.3 NNW 28 39 15 21 1015.9 - 0.4
26/07:00pm 10.4 3.9 6.4 76 1.9 NNW 30 39 16 21 1015.9 - 0.4
26/06:30pm 10.5 4.3 6.0 74 2.1 NNW 28 37 15 20 1015.9 - 0.4
26/06:00pm 10.2 4.0 6.1 76 1.9 NNW 28 39 15 21 1016.0 1016.3 0.4
26/05:30pm 10.2 4.5 6.6 78 1.7 NNW 26 33 14 18 1015.9 - 0.4
26/05:00pm 10.2 3.7 6.6 78 1.7 NNW 30 39 16 21 1015.7 - 0.4
26/04:39pm 10.7 2.3 5.8 72 2.3 NNW 39 59 21 32 1015.5 - 0.4
26/04:30pm 10.7 3.5 6.0 73 2.2 NNW 33 43 18 23 1015.6 - 0.4
26/04:00pm 11.2 4.0 6.1 71 2.4 NNW 33 43 18 23 1015.6 - 0.4
26/03:30pm 10.8 2.5 6.1 73 2.2 NNW 39 48 21 26 1015.6 - 0.4
26/03:07pm 10.9 -0.4 5.5 69 2.5 NNW 54 74 29 40 1014.8 - 0.4
26/03:00pm 11.1 0.8 6.5 73 2.2 NW 50 57 27 31 1015.1 1015.4 0.4
26/02:46pm 10.8 0.4 5.9 72 2.3 NW 50 54 27 29 1015.4 - 0.4
26/02:30pm 9.8 -4.0 7.9 88 0.9 NW 70 78 38 42 1014.9 - 0.4
26/02:00pm 10.1 -1.4 7.2 82 1.4 NW 57 80 31 43 1015.1 - 0.2
26/01:59pm 10.4 -0.8 7.7 83 1.3 NW 56 80 30 43 1015.1 - 0.2
26/01:30pm 11.5 1.8 7.6 77 1.9 NW 48 54 26 29 1015.6 - 0.2
26/01:00pm 11.0 1.3 7.5 79 1.7 NW 48 54 26 29 1016.0 - 0.2
26/12:30pm 11.2 0.0 7.5 78 1.8 NW 56 65 30 35 1016.0 - 0.2
26/12:00pm 11.6 0.0 5.6 66 2.8 NW 56 63 30 34 1015.6 1015.9 0.2
26/11:30am 10.6 -0.5 6.4 75 2.0 NW 54 72 29 39 1016.2 - 0.2
26/11:18am 10.8 -1.3 6.1 73 2.2 NW 59 78 32 42 1015.7 - 0.2
26/11:00am 11.3 0.0 5.2 66 2.8 NW 54 61 29 33 1016.2 - 0.2
26/10:30am 11.2 -0.7 5.4 67 2.7 NW 57 65 31 35 1016.4 - 0.2
26/10:00am 10.8 -2.2 5.6 70 2.4 NW 63 72 34 39 1016.0 - 0.2
26/09:30am 10.4 -2.8 6.1 75 2.0 NW 65 72 35 39 1015.8 - 0.2
26/09:09am 11.1 -1.5 5.7 69 2.5 NW 61 80 33 43 1015.4 - 0.0
26/09:00am 10.9 -1.6 6.0 72 2.3 NW 61 72 33 39 1015.3 1015.6 4.6
26/08:30am 10.8 -1.9 4.9 67 2.7 NW 61 70 33 38 1015.3 - 4.6
26/08:00am 10.6 -2.3 3.9 63 3.0 NW 61 67 33 36 1015.2 - 4.6
26/07:30am 10.6 -2.2 4.6 66 2.7 NW 61 72 33 39 1014.7 - 4.6
26/07:00am 10.5 -2.8 4.0 64 2.9 NW 63 70 34 38 1014.4 - 4.6
26/06:30am 10.5 -3.6 3.7 63 3.0 NW 67 76 36 41 1014.1 - 4.6
26/06:00am 10.4 -3.9 4.7 68 2.6 NW 69 76 37 41 1013.3 1013.5 4.6
26/05:30am 10.6 -3.3 4.7 67 2.7 NW 67 76 36 41 1013.0 - 4.6
26/05:00am 10.3 -3.9 3.0 60 3.2 NW 67 76 36 41 1013.0 - 4.6
26/04:30am 10.4 -2.2 5.4 71 2.3 WNW 61 69 33 37 1012.9 - 4.6
26/04:00am 10.4 -4.3 3.6 63 3.0 NW 70 82 38 44 1012.5 - 4.6
26/03:30am 10.7 -4.2 4.3 64 2.9 NW 72 80 39 43 1012.1 - 4.6
26/03:00am 10.6 -4.4 4.1 64 2.9 NW 72 87 39 47 1011.9 1012.1 4.6
26/02:30am 10.6 -4.6 4.9 68 2.6 NW 74 83 40 45 1011.6 - 4.6
26/02:00am 10.7 -4.2 4.5 65 2.8 NW 72 83 39 45 1011.2 - 4.6
26/01:30am 10.7 -4.2 4.5 65 2.8 NW 72 82 39 44 1011.3 - 4.6
26/01:00am 10.6 -3.9 6.4 75 2.0 NW 72 82 39 44 1011.0 - 4.6
26/12:30am 10.8 -3.5 4.9 67 2.7 NW 69 76 37 41 1011.3 - 4.6
26/12:00am 10.7 -3.6 4.5 65 2.8 NW 69 78 37 42 1011.1 1011.3 4.6
 
Date/Time
EST
Temp
°C
App
Temp
°C
Dew
Point
°C
Rel
Hum
%
Delta-T
°C
Wind Press
QNH
hPa
Press
MSL
hPa
Rain since
9am
mm
Dir  Spd
km/h
Gust
km/h
Spd
kts
Gust
kts
25/11:30pm 10.5 -4.0 4.8 68 2.6 NW 70 80 38 43 1010.9 - 4.6
25/11:00pm 10.5 -4.0 4.5 66 2.7 NW 70 80 38 43 1010.9 - 4.6
25/10:30pm 10.9 -2.2 6.7 75 2.0 NW 65 74 35 40 1010.6 - 4.6
25/10:00pm 10.5 -2.3 6.5 76 1.9 NW 63 72 34 39 1010.6 - 4.6
25/09:30pm 10.2 -3.3 6.6 78 1.7 NW 67 74 36 40 1010.4 - 4.6
25/09:00pm 9.7 -3.6 7.4 85 1.1 NW 67 74 36 40 1010.2 1010.4 4.6
25/08:56pm 9.4 -4.2 7.7 89 0.8 NW 69 74 37 40 1009.8 - 4.6
25/08:47pm 9.6 -8.2 7.7 88 0.9 NW 91 95 49 51 1009.3 - 4.2
25/08:44pm 11.3 -2.9 7.8 79 1.7 NW 72 95 39 51 1009.0 - 4.0
25/08:30pm 11.5 -2.2 7.4 76 2.0 NW 69 80 37 43 1009.0 - 4.0
25/08:00pm 11.3 -2.3 7.8 79 1.7 NW 69 80 37 43 1009.0 - 4.0
25/07:30pm 11.1 -2.7 6.9 75 2.0 NW 69 82 37 44 1009.0 - 4.0
25/07:00pm 10.8 -1.8 7.3 79 1.7 NW 63 70 34 38 1008.9 - 4.0
25/06:30pm 10.7 -0.3 6.9 77 1.8 NW 54 63 29 34 1008.7 - 4.0
25/06:00pm 10.4 1.3 8.4 87 1.0 NW 46 57 25 31 1008.8 1009.0 4.0
25/05:30pm 9.9 1.2 8.5 91 0.7 NNW 44 52 24 28 1008.1 - 3.8
25/05:12pm 9.8 0.0 8.8 93 0.5 NW 50 54 27 29 1007.8 - 3.8
25/05:00pm 9.6 -0.3 8.4 92 0.6 WNW 50 59 27 32 1008.3 - 3.8
25/04:30pm 9.8 -1.2 9.0 95 0.4 WNW 57 67 31 36 1008.3 - 3.8
25/04:08pm 10.3 -1.2 10.1 99 0.1 WNW 61 69 33 37 1007.7 - 3.4
25/04:01pm 11.4 0.7 10.4 94 0.5 NNW 57 76 31 41 1006.1 - 1.8
25/04:00pm 11.5 0.9 10.1 91 0.7 NNW 56 72 30 39 1006.1 - 1.8
25/03:30pm 12.2 3.7 9.3 82 1.5 NNW 44 61 24 33 1006.4 - 1.6
25/03:20pm 12.2 3.7 8.6 78 1.8 NNW 43 61 23 33 1006.6 - 1.6
25/03:00pm 12.1 2.8 9.1 82 1.5 NNW 48 63 26 34 1006.8 1007.0 1.6
25/02:30pm 11.7 3.4 9.5 86 1.1 NNW 43 57 23 31 1007.1 - 1.6
25/02:12pm 11.6 0.8 9.2 85 1.2 NNW 56 87 30 47 1006.6 - 1.6
25/02:00pm 11.9 2.3 9.3 84 1.3 NNW 50 69 27 37 1007.0 - 1.4
25/01:30pm 11.8 -0.2 9.7 87 1.1 NNW 63 85 34 46 1006.5 - 1.4
25/01:00pm 11.8 1.4 10.7 93 0.6 NNW 56 76 30 41 1006.9 - 1.4
25/12:55pm 11.8 0.2 11.0 95 0.4 NNW 63 82 34 44 1007.1 - 1.4
25/12:46pm 11.6 -0.4 11.0 96 0.3 NNW 65 76 35 41 1007.0 - 1.2
25/12:44pm 11.9 4.0 11.3 96 0.3 NNW 44 65 24 35 1007.4 - 1.2
25/12:30pm 12.0 4.3 11.6 97 0.2 NNW 43 54 23 29 1007.5 - 0.6
25/12:00pm 11.8 5.5 11.2 96 0.3 NNW 35 50 19 27 1008.5 1008.7 0.0
25/11:30am 12.0 6.0 10.9 93 0.6 NNW 33 44 18 24 1009.3 - 0.0
25/11:00am 11.6 5.2 10.8 95 0.4 NNW 35 46 19 25 1009.9 - 0.0
25/10:30am 11.6 5.2 10.6 94 0.5 NNW 35 46 19 25 1010.2 - 0.0
25/10:00am 11.4 5.0 10.6 95 0.4 NNW 35 52 19 28 1010.5 - 0.0
25/09:30am 11.4 4.9 10.4 94 0.5 NNW 35 46 19 25 1010.6 - 0.0
25/09:00am 11.2 5.0 10.2 94 0.5 NNW 33 43 18 23 1010.9 1011.1 3.6
25/08:30am 11.1 4.6 10.5 96 0.3 NNW 35 44 19 24 1011.1 - 3.6
25/08:00am 10.9 4.8 10.5 97 0.2 NNW 33 43 18 23 1010.9 - 3.4
25/07:30am 11.0 4.5 10.4 96 0.3 NNW 35 46 19 25 1010.9 - 3.2
25/07:00am 11.0 5.1 10.6 97 0.2 NNW 32 39 17 21 1011.0 - 3.0
25/06:30am 10.8 5.3 10.4 97 0.2 NNW 30 37 16 20 1010.9 - 3.0
25/06:00am 10.9 5.0 10.5 97 0.2 NNW 32 41 17 22 1010.7 1010.9 2.8
25/05:30am 10.9 4.8 10.5 97 0.2 NNW 33 43 18 23 1010.8 - 2.8
25/05:00am 10.9 5.0 10.3 96 0.3 NNW 32 39 17 21 1011.0 - 2.2
25/04:30am 10.8 4.6 10.2 96 0.3 NNW 33 43 18 23 1010.9 - 1.8
25/04:00am 10.8 4.8 10.0 95 0.4 NNW 32 39 17 21 1011.0 - 1.8
25/03:30am 11.0 4.9 9.8 92 0.6 NNW 32 43 17 23 1011.1 - 1.8
25/03:00am 10.8 2.4 9.8 93 0.5 NNW 44 61 24 33 1011.1 1011.3 1.8
25/02:37am 11.1 1.7 10.3 95 0.4 NNW 50 69 27 37 1011.1 - 1.8
25/02:30am 10.9 0.7 10.1 95 0.4 NW 54 69 29 37 1010.7 - 1.8
25/02:00am 11.3 2.4 9.1 86 1.1 NNW 46 57 25 31 1011.0 - 1.4
25/01:41am 11.7 1.9 8.7 82 1.5 NW 50 72 27 39 1010.8 - 1.4
25/01:30am 11.6 0.6 8.6 82 1.5 NW 56 69 30 37 1010.9 - 1.4
25/01:00am 11.4 1.3 9.0 85 1.2 NNW 52 63 28 34 1010.7 - 1.4
25/12:30am 11.7 0.7 8.5 81 1.6 NNW 56 65 30 35 1010.6 - 1.4
25/12:00am 11.7 1.1 8.5 81 1.6 NNW 54 63 29 34 1010.6 1010.8 1.4
 
Date/Time
EST
Temp
°C
App
Temp
°C
Dew
Point
°C
Rel
Hum
%
Delta-T
°C
Wind Press
QNH
hPa
Press
MSL
hPa
Rain since
9am
mm
Dir  Spd
km/h
Gust
km/h
Spd
kts
Gust
kts
24/11:30pm 11.7 1.1 8.3 79 1.7 NNW 54 63 29 34 1010.7 - 1.4
24/11:00pm 11.5 -0.7 7.2 75 2.1 NW 61 69 33 37 1010.7 - 1.4
24/10:30pm 11.3 -0.8 6.2 71 2.4 NW 59 69 32 37 1010.6 - 1.4
24/10:00pm 11.2 -0.6 7.3 77 1.9 NW 59 69 32 37 1010.4 - 1.4
24/09:30pm 10.8 -0.6 7.5 80 1.6 NW 57 67 31 36 1010.5 - 1.4
24/09:00pm 10.4 -2.1 9.2 92 0.6 NW 65 78 35 42 1010.3 1010.5 1.2
24/08:55pm 10.5 -0.6 8.9 90 0.8 NW 57 78 31 42 1010.4 - 1.2
24/08:30pm 11.6 -0.1 7.9 78 1.8 NW 59 67 32 36 1010.1 - 1.2
24/08:00pm 11.3 -1.5 6.5 72 2.3 NW 63 74 34 40 1009.7 - 1.2
24/07:30pm 11.2 -1.7 6.1 71 2.4 NW 63 70 34 38 1009.7 - 1.2
24/07:00pm 11.0 -0.6 8.2 83 1.4 NW 59 69 32 37 1009.5 - 1.2
24/06:30pm 11.5 -1.3 6.2 70 2.5 NW 63 74 34 40 1009.1 - 1.0
24/06:00pm 11.5 -1.7 6.5 71 2.4 NW 65 74 35 40 1009.0 1009.2 1.0
24/05:30pm 11.1 -2.6 5.5 68 2.6 NW 67 76 36 41 1008.0 - 1.0
24/05:00pm 10.4 -1.8 7.3 81 1.5 NW 61 70 33 38 1008.2 - 1.0
24/04:30pm 10.9 -1.5 6.5 74 2.1 NW 61 70 33 38 1007.8 - 1.0

Other Formats:

Comma delimited format used in spreadsheet applications
http://www.bom.gov.au/fwo/IDT60801/IDT60801.94962.axf

JavaScript Object Notation format (JSON) in row-major order
http://www.bom.gov.au/fwo/IDT60801/IDT60801.94962.json